createdAt,value
2023-03-16T00:03:20.593Z,4.80
2023-03-16T00:08:24.134Z,4.90
2023-03-16T00:13:27.552Z,4.43
2023-03-16T00:18:30.487Z,4.17
2023-03-16T00:23:35.868Z,5.37
2023-03-16T00:28:38.792Z,3.63
2023-03-16T05:35:38.936Z,6.13
2023-03-16T05:40:42.341Z,8.60
2023-03-16T05:45:45.106Z,7.13
2023-03-16T05:50:48.247Z,7.57
2023-03-16T05:55:54.125Z,7.73
2023-03-16T06:01:01.827Z,9.10
2023-03-16T06:06:04.654Z,6.47
2023-03-16T06:11:07.895Z,7.70
2023-03-16T06:16:13.803Z,9.93
2023-03-16T06:21:16.895Z,7.47
2023-03-16T06:26:19.632Z,7.63
2023-03-16T06:31:22.511Z,8.97
2023-03-16T06:36:25.289Z,9.17
2023-03-16T06:41:28.039Z,9.10
2023-03-16T06:46:32.996Z,8.00
2023-03-16T06:51:35.715Z,9.97
2023-03-16T06:56:38.524Z,8.20
2023-03-16T07:01:42.269Z,8.57
2023-03-16T07:06:45.223Z,7.63
2023-03-16T07:11:48.444Z,7.23
2023-03-16T07:16:52.863Z,6.63
2023-03-16T07:21:56.132Z,8.57
2023-03-16T07:26:59.751Z,8.63
2023-03-16T07:32:04.124Z,7.67
2023-03-16T07:37:09.931Z,8.33
2023-03-16T07:42:19.927Z,7.20
2023-03-16T07:47:26.408Z,6.70
2023-03-16T07:52:31.497Z,7.43
2023-03-16T07:57:34.931Z,9.20
2023-03-16T08:02:38.259Z,8.63
2023-03-16T08:07:41.375Z,7.50
2023-03-16T08:12:44.639Z,9.97
2023-03-16T08:17:50.581Z,8.27
2023-03-16T08:22:53.873Z,8.43
2023-03-16T08:27:58.158Z,7.90
2023-03-16T08:33:03.204Z,7.07
2023-03-16T08:38:06.582Z,8.37
2023-03-16T08:43:11.022Z,8.50
2023-03-16T08:48:14.926Z,7.33
2023-03-16T08:53:18.897Z,6.37
2023-03-16T08:58:27.704Z,7.93
2023-03-16T09:03:31.560Z,7.37
2023-03-16T09:08:35.453Z,5.70
2023-03-16T09:13:39.377Z,6.37
2023-03-16T09:18:45.264Z,5.20
2023-03-16T09:23:49.706Z,4.47
2023-03-16T09:28:54.384Z,5.03
2023-03-16T09:33:59.098Z,4.50
2023-03-16T09:39:03.849Z,4.33
2023-03-16T09:44:29.239Z,3.63
2023-03-16T09:49:45.469Z,2.97
2023-03-16T09:55:07.595Z,2.90
2023-03-16T10:00:31.658Z,3.73
2023-03-16T10:05:34.960Z,3.10
2023-03-16T10:10:53.460Z,3.10
2023-03-16T10:15:59.779Z,2.97
2023-03-16T10:21:16.900Z,3.23
2023-03-16T10:26:38.239Z,2.20
2023-03-16T10:31:42.937Z,2.20
2023-03-16T10:36:48.601Z,2.40
2023-03-16T10:41:57.845Z,2.60
2023-03-16T10:47:08.481Z,2.67
2023-03-16T10:52:24.916Z,1.97
2023-03-16T10:57:33.981Z,2.67
2023-03-16T11:02:39.689Z,2.57
2023-03-16T11:07:58.512Z,1.83
2023-03-16T11:13:12.243Z,2.90
2023-03-16T11:18:37.079Z,2.40
2023-03-16T11:23:48.381Z,2.00
2023-03-16T11:29:03.664Z,1.90
2023-03-16T11:34:17.628Z,2.40
2023-03-16T11:39:44.369Z,2.17
2023-03-16T11:45:01.501Z,1.50
2023-03-16T11:50:50.054Z,1.30
2023-03-16T11:56:24.396Z,1.57
2023-03-16T12:01:35.071Z,1.80
2023-03-16T12:06:39.056Z,1.53
2023-03-16T12:11:57.757Z,1.90
2023-03-16T12:17:08.847Z,1.40
2023-03-16T12:22:19.977Z,1.60
2023-03-16T12:27:31.890Z,1.87
2023-03-16T12:32:53.598Z,1.23
2023-03-16T12:38:33.563Z,1.83
2023-03-16T12:44:00.757Z,1.60
2023-03-16T12:49:10.327Z,1.83
2023-03-16T12:54:24.009Z,2.10
2023-03-16T12:59:43.138Z,1.87
2023-03-16T13:04:51.797Z,1.90
2023-03-16T13:10:10.786Z,2.23
2023-03-16T13:15:22.144Z,2.20
2023-03-16T13:20:32.612Z,1.67
2023-03-16T13:25:43.737Z,1.70
2023-03-16T13:30:49.066Z,2.20
2023-03-16T13:35:54.351Z,1.80
2023-03-16T13:41:09.328Z,1.60
2023-03-16T13:46:22.351Z,1.83
2023-03-16T13:51:25.605Z,1.93
2023-03-16T13:56:32.570Z,1.40
2023-03-16T14:01:35.741Z,1.30
2023-03-16T14:06:39.598Z,1.20
2023-03-16T14:11:44.550Z,1.77
2023-03-16T14:16:47.341Z,1.83
2023-03-16T14:21:50.167Z,2.30
2023-03-16T14:26:52.928Z,1.70
2023-03-16T14:31:55.959Z,2.53
2023-03-16T14:37:19.422Z,2.00
2023-03-16T14:42:30.920Z,1.53
2023-03-16T14:47:42.846Z,1.53
2023-03-16T14:52:46.380Z,1.40
2023-03-16T14:57:51.350Z,1.57
2023-03-16T15:03:07.529Z,1.23
2023-03-16T15:08:18.821Z,2.13
2023-03-16T15:13:42.443Z,1.97
2023-03-16T15:18:45.339Z,2.27
2023-03-16T15:23:48.359Z,1.77
2023-03-16T15:28:51.100Z,1.30
2023-03-16T15:33:53.987Z,1.20
2023-03-16T15:38:56.897Z,1.40
2023-03-16T15:44:01.468Z,1.40
2023-03-16T15:49:04.429Z,1.83
2023-03-16T15:54:08.550Z,2.17
2023-03-16T15:59:14.027Z,2.30
2023-03-16T16:04:21.753Z,1.30
2023-03-16T16:09:25.523Z,2.07
2023-03-16T16:14:28.371Z,1.67
2023-03-16T16:19:34.177Z,1.73
2023-03-16T16:24:37.901Z,2.37
2023-03-16T16:29:41.050Z,2.40
2023-03-16T16:34:47.845Z,2.73
2023-03-16T16:39:57.712Z,2.77
2023-03-16T16:45:00.787Z,2.00
2023-03-16T16:50:10.301Z,2.30
2023-03-16T16:55:13.874Z,2.87
2023-03-16T17:00:23.896Z,2.87
2023-03-16T17:05:29.032Z,2.73
2023-03-16T17:10:33.315Z,3.07
2023-03-16T17:15:36.972Z,4.57
2023-03-16T17:20:40.233Z,5.93
2023-03-16T17:25:43.443Z,5.73
2023-03-16T17:30:49.609Z,4.27
2023-03-16T17:35:52.464Z,4.97
2023-03-16T17:40:56.312Z,4.77
2023-03-16T17:45:59.894Z,5.77
2023-03-16T17:51:02.962Z,7.07
2023-03-16T17:56:20.513Z,6.77
2023-03-16T18:01:29.155Z,8.83
2023-03-16T18:06:32.499Z,6.90
2023-03-16T18:11:37.637Z,8.57
2023-03-16T18:16:40.749Z,5.60
2023-03-16T18:21:47.184Z,5.30
2023-03-16T18:26:50.656Z,6.23
2023-03-16T18:31:55.297Z,6.57
2023-03-16T18:37:00.975Z,10.53
2023-03-16T18:42:04.243Z,9.43
2023-03-16T18:47:14.942Z,10.97
2023-03-16T18:52:26.193Z,11.57
2023-03-16T18:57:29.751Z,11.63
2023-03-16T19:02:40.713Z,10.10
2023-03-16T19:07:47.986Z,10.03
2023-03-16T19:12:51.182Z,9.80
2023-03-16T19:17:54.498Z,10.10
2023-03-16T19:23:06.287Z,10.27
2023-03-16T19:28:15.044Z,9.40
2023-03-16T19:33:26.283Z,10.03
2023-03-16T19:38:29.067Z,10.00
2023-03-16T19:43:31.842Z,9.87
2023-03-16T19:48:34.916Z,9.97
2023-03-16T19:53:37.658Z,8.03
2023-03-16T19:58:42.668Z,8.40
2023-03-16T20:03:47.746Z,8.70
2023-03-16T20:08:51.399Z,8.43
2023-03-16T20:13:54.209Z,7.13
2023-03-16T20:19:00.423Z,7.67
2023-03-16T20:24:03.531Z,7.60
2023-03-16T20:29:09.868Z,7.93
2023-03-16T20:34:23.177Z,7.97
2023-03-16T20:39:26.502Z,6.67
2023-03-16T20:44:30.285Z,8.37
2023-03-16T20:49:34.144Z,8.17
2023-03-16T20:54:37.081Z,8.40
2023-03-16T20:59:40.278Z,11.53
2023-03-16T21:04:44.217Z,12.63
2023-03-16T21:09:50.332Z,13.20
2023-03-16T21:14:53.436Z,16.60
2023-03-16T21:19:56.486Z,11.03
2023-03-16T21:24:59.275Z,11.00
2023-03-16T21:30:07.620Z,11.33
2023-03-16T21:35:15.179Z,11.77
2023-03-16T21:40:22.533Z,10.63
2023-03-16T21:45:25.496Z,8.70
2023-03-16T21:50:36.653Z,13.43
2023-03-16T21:55:39.440Z,18.20
2023-03-16T22:00:42.580Z,17.93
2023-03-16T22:05:45.338Z,18.77
2023-03-16T22:10:48.119Z,9.70
2023-03-16T22:15:52.476Z,11.00
2023-03-16T22:20:56.681Z,10.07
2023-03-16T22:26:00.244Z,11.23
2023-03-16T22:31:04.097Z,12.37
2023-03-16T22:36:12.088Z,11.50
2023-03-16T22:41:18.018Z,10.17
2023-03-16T22:46:23.461Z,12.43
2023-03-16T22:51:33.452Z,13.67
2023-03-16T22:56:36.667Z,12.33
2023-03-16T23:01:42.655Z,12.07
2023-03-16T23:06:47.188Z,12.10
2023-03-16T23:11:54.886Z,11.73
2023-03-16T23:16:57.842Z,20.00
2023-03-16T23:22:03.551Z,21.17
2023-03-16T23:27:17.620Z,21.93
2023-03-16T23:32:20.503Z,22.80
2023-03-16T23:37:23.245Z,21.50
2023-03-16T23:42:26.094Z,24.13
2023-03-16T23:47:29.139Z,27.13
2023-03-16T23:52:31.937Z,21.80
2023-03-16T23:57:34.653Z,29.10
